sensor_id;sensor_type;location;lat;lon;timestamp;P1;durP1;ratioP1;P2;durP2;ratioP2
11709;SDS011;5911;51.036;6.972;2022-11-06T00:01:42;14.63;;;8.47;;
11709;SDS011;5911;51.036;6.972;2022-11-06T00:04:10;17.27;;;9.37;;
11709;SDS011;5911;51.036;6.972;2022-11-06T00:06:38;12.40;;;8.37;;
11709;SDS011;5911;51.036;6.972;2022-11-06T00:09:14;15.37;;;9.07;;
11709;SDS011;5911;51.036;6.972;2022-11-06T00:11:45;14.53;;;8.97;;
11709;SDS011;5911;51.036;6.972;2022-11-06T00:14:13;16.17;;;8.60;;
11709;SDS011;5911;51.036;6.972;2022-11-06T00:16:41;12.50;;;7.90;;
11709;SDS011;5911;51.036;6.972;2022-11-06T00:19:10;10.40;;;7.80;;
11709;SDS011;5911;51.036;6.972;2022-11-06T00:21:38;12.23;;;7.03;;
11709;SDS011;5911;51.036;6.972;2022-11-06T00:24:06;12.57;;;7.33;;
11709;SDS011;5911;51.036;6.972;2022-11-06T00:26:35;7.30;;;6.23;;
11709;SDS011;5911;51.036;6.972;2022-11-06T00:29:05;7.53;;;6.13;;
11709;SDS011;5911;51.036;6.972;2022-11-06T00:31:34;7.93;;;6.27;;
11709;SDS011;5911;51.036;6.972;2022-11-06T00:34:03;7.63;;;5.60;;
11709;SDS011;5911;51.036;6.972;2022-11-06T00:36:32;7.00;;;5.73;;
11709;SDS011;5911;51.036;6.972;2022-11-06T00:39:01;8.40;;;5.80;;
11709;SDS011;5911;51.036;6.972;2022-11-06T00:41:29;11.33;;;6.77;;
11709;SDS011;5911;51.036;6.972;2022-11-06T00:43:58;10.03;;;6.23;;
11709;SDS011;5911;51.036;6.972;2022-11-06T00:46:31;9.90;;;6.50;;
11709;SDS011;5911;51.036;6.972;2022-11-06T00:48:59;11.47;;;7.07;;
11709;SDS011;5911;51.036;6.972;2022-11-06T00:51:27;13.23;;;7.10;;
11709;SDS011;5911;51.036;6.972;2022-11-06T00:53:57;12.17;;;6.50;;
11709;SDS011;5911;51.036;6.972;2022-11-06T00:56:26;12.53;;;7.27;;
11709;SDS011;5911;51.036;6.972;2022-11-06T00:58:54;14.83;;;7.90;;
11709;SDS011;5911;51.036;6.972;2022-11-06T01:01:23;13.70;;;7.53;;
11709;SDS011;5911;51.036;6.972;2022-11-06T01:03:57;13.80;;;7.93;;
11709;SDS011;5911;51.036;6.972;2022-11-06T01:06:27;13.93;;;7.50;;
11709;SDS011;5911;51.036;6.972;2022-11-06T01:08:57;12.53;;;6.93;;
11709;SDS011;5911;51.036;6.972;2022-11-06T01:11:27;12.53;;;7.03;;
11709;SDS011;5911;51.036;6.972;2022-11-06T01:14:17;13.93;;;7.13;;
11709;SDS011;5911;51.036;6.972;2022-11-06T01:16:46;14.20;;;7.00;;
11709;SDS011;5911;51.036;6.972;2022-11-06T01:19:16;10.63;;;6.70;;
11709;SDS011;5911;51.036;6.972;2022-11-06T01:21:47;14.60;;;6.60;;
11709;SDS011;5911;51.036;6.972;2022-11-06T01:24:16;11.43;;;6.50;;
11709;SDS011;5911;51.036;6.972;2022-11-06T01:26:46;16.50;;;7.70;;
11709;SDS011;5911;51.036;6.972;2022-11-06T01:29:34;14.83;;;7.00;;
11709;SDS011;5911;51.036;6.972;2022-11-06T01:32:02;13.90;;;6.97;;
11709;SDS011;5911;51.036;6.972;2022-11-06T01:34:32;13.77;;;6.97;;
11709;SDS011;5911;51.036;6.972;2022-11-06T01:36:59;14.47;;;5.77;;
11709;SDS011;5911;51.036;6.972;2022-11-06T01:39:27;12.83;;;6.23;;
11709;SDS011;5911;51.036;6.972;2022-11-06T01:41:55;11.97;;;5.73;;
11709;SDS011;5911;51.036;6.972;2022-11-06T01:47:36;9.90;;;5.83;;
11709;SDS011;5911;51.036;6.972;2022-11-06T01:50:06;11.13;;;5.67;;
11709;SDS011;5911;51.036;6.972;2022-11-06T01:52:36;10.53;;;6.23;;
11709;SDS011;5911;51.036;6.972;2022-11-06T01:55:06;13.67;;;5.83;;
11709;SDS011;5911;51.036;6.972;2022-11-06T01:57:36;8.33;;;5.33;;
11709;SDS011;5911;51.036;6.972;2022-11-06T02:00:06;12.33;;;5.67;;
11709;SDS011;5911;51.036;6.972;2022-11-06T02:02:35;11.37;;;5.73;;
11709;SDS011;5911;51.036;6.972;2022-11-06T02:05:06;13.90;;;6.23;;
11709;SDS011;5911;51.036;6.972;2022-11-06T02:07:34;11.70;;;6.23;;
11709;SDS011;5911;51.036;6.972;2022-11-06T02:10:03;13.80;;;6.33;;
11709;SDS011;5911;51.036;6.972;2022-11-06T02:15:23;8.97;;;5.07;;
11709;SDS011;5911;51.036;6.972;2022-11-06T02:21:18;9.90;;;5.40;;
11709;SDS011;5911;51.036;6.972;2022-11-06T02:24:00;12.67;;;5.97;;
11709;SDS011;5911;51.036;6.972;2022-11-06T02:29:28;9.13;;;5.30;;
11709;SDS011;5911;51.036;6.972;2022-11-06T02:32:01;11.17;;;5.57;;
11709;SDS011;5911;51.036;6.972;2022-11-06T02:34:32;11.97;;;5.27;;
11709;SDS011;5911;51.036;6.972;2022-11-06T02:37:04;9.63;;;4.40;;
11709;SDS011;5911;51.036;6.972;2022-11-06T02:39:37;9.13;;;4.73;;
11709;SDS011;5911;51.036;6.972;2022-11-06T02:42:09;6.23;;;4.40;;
11709;SDS011;5911;51.036;6.972;2022-11-06T02:44:39;10.23;;;4.17;;
11709;SDS011;5911;51.036;6.972;2022-11-06T02:47:09;10.20;;;4.40;;
11709;SDS011;5911;51.036;6.972;2022-11-06T02:49:40;4.87;;;3.40;;
11709;SDS011;5911;51.036;6.972;2022-11-06T02:52:13;6.97;;;4.00;;
11709;SDS011;5911;51.036;6.972;2022-11-06T02:54:45;9.97;;;4.97;;
11709;SDS011;5911;51.036;6.972;2022-11-06T02:57:18;10.93;;;4.77;;
11709;SDS011;5911;51.036;6.972;2022-11-06T02:59:50;14.13;;;5.00;;
11709;SDS011;5911;51.036;6.972;2022-11-06T03:02:25;7.67;;;4.30;;
11709;SDS011;5911;51.036;6.972;2022-11-06T03:04:59;9.30;;;4.43;;
11709;SDS011;5911;51.036;6.972;2022-11-06T03:07:32;8.33;;;4.33;;
11709;SDS011;5911;51.036;6.972;2022-11-06T03:10:04;9.97;;;4.93;;
11709;SDS011;5911;51.036;6.972;2022-11-06T03:12:36;7.20;;;4.50;;
11709;SDS011;5911;51.036;6.972;2022-11-06T03:15:11;7.80;;;4.40;;
11709;SDS011;5911;51.036;6.972;2022-11-06T03:17:45;9.43;;;4.83;;
11709;SDS011;5911;51.036;6.972;2022-11-06T03:20:19;9.03;;;4.80;;
11709;SDS011;5911;51.036;6.972;2022-11-06T03:22:51;8.93;;;4.40;;
11709;SDS011;5911;51.036;6.972;2022-11-06T03:25:24;9.30;;;5.50;;
11709;SDS011;5911;51.036;6.972;2022-11-06T03:27:59;14.73;;;5.50;;
11709;SDS011;5911;51.036;6.972;2022-11-06T03:30:31;14.23;;;6.33;;
11709;SDS011;5911;51.036;6.972;2022-11-06T03:33:04;9.93;;;4.97;;
11709;SDS011;5911;51.036;6.972;2022-11-06T03:35:39;12.23;;;5.80;;
11709;SDS011;5911;51.036;6.972;2022-11-06T03:38:12;11.47;;;5.60;;
11709;SDS011;5911;51.036;6.972;2022-11-06T03:40:46;9.23;;;5.23;;
11709;SDS011;5911;51.036;6.972;2022-11-06T03:43:20;7.63;;;4.30;;
11709;SDS011;5911;51.036;6.972;2022-11-06T03:45:51;8.90;;;3.37;;
11709;SDS011;5911;51.036;6.972;2022-11-06T03:48:20;7.87;;;3.57;;
11709;SDS011;5911;51.036;6.972;2022-11-06T03:50:55;5.40;;;3.87;;
11709;SDS011;5911;51.036;6.972;2022-11-06T03:53:26;9.10;;;4.40;;
11709;SDS011;5911;51.036;6.972;2022-11-06T03:55:58;8.10;;;4.63;;
11709;SDS011;5911;51.036;6.972;2022-11-06T03:58:34;6.60;;;4.43;;
11709;SDS011;5911;51.036;6.972;2022-11-06T04:01:06;13.17;;;5.93;;
11709;SDS011;5911;51.036;6.972;2022-11-06T04:03:38;7.50;;;5.10;;
11709;SDS011;5911;51.036;6.972;2022-11-06T04:06:11;9.10;;;5.10;;
11709;SDS011;5911;51.036;6.972;2022-11-06T04:08:43;7.67;;;4.47;;
11709;SDS011;5911;51.036;6.972;2022-11-06T04:11:32;10.63;;;5.10;;
11709;SDS011;5911;51.036;6.972;2022-11-06T04:14:21;9.83;;;4.50;;
11709;SDS011;5911;51.036;6.972;2022-11-06T04:16:53;9.97;;;4.93;;
11709;SDS011;5911;51.036;6.972;2022-11-06T04:19:24;9.17;;;4.73;;
11709;SDS011;5911;51.036;6.972;2022-11-06T04:22:04;9.57;;;4.40;;
11709;SDS011;5911;51.036;6.972;2022-11-06T04:24:46;12.10;;;4.70;;
11709;SDS011;5911;51.036;6.972;2022-11-06T04:27:44;9.43;;;4.40;;
11709;SDS011;5911;51.036;6.972;2022-11-06T04:30:21;8.40;;;4.23;;
11709;SDS011;5911;51.036;6.972;2022-11-06T04:33:00;5.73;;;3.73;;
11709;SDS011;5911;51.036;6.972;2022-11-06T04:35:39;5.73;;;3.47;;
11709;SDS011;5911;51.036;6.972;2022-11-06T04:38:18;11.77;;;4.20;;
11709;SDS011;5911;51.036;6.972;2022-11-06T04:40:57;8.13;;;3.97;;
11709;SDS011;5911;51.036;6.972;2022-11-06T04:43:34;8.97;;;3.93;;
11709;SDS011;5911;51.036;6.972;2022-11-06T04:46:09;5.70;;;3.00;;
11709;SDS011;5911;51.036;6.972;2022-11-06T04:48:42;9.90;;;3.73;;
11709;SDS011;5911;51.036;6.972;2022-11-06T04:51:12;6.50;;;3.23;;
11709;SDS011;5911;51.036;6.972;2022-11-06T04:53:41;6.10;;;3.00;;
11709;SDS011;5911;51.036;6.972;2022-11-06T04:56:11;7.93;;;3.07;;
11709;SDS011;5911;51.036;6.972;2022-11-06T04:58:46;8.80;;;3.40;;
11709;SDS011;5911;51.036;6.972;2022-11-06T05:01:15;7.33;;;2.57;;
11709;SDS011;5911;51.036;6.972;2022-11-06T05:03:43;5.53;;;3.00;;
11709;SDS011;5911;51.036;6.972;2022-11-06T05:06:11;7.83;;;3.50;;
11709;SDS011;5911;51.036;6.972;2022-11-06T05:08:39;6.83;;;3.43;;
11709;SDS011;5911;51.036;6.972;2022-11-06T05:11:07;8.13;;;3.50;;
11709;SDS011;5911;51.036;6.972;2022-11-06T05:13:35;7.23;;;3.70;;
11709;SDS011;5911;51.036;6.972;2022-11-06T05:16:04;8.37;;;3.23;;
11709;SDS011;5911;51.036;6.972;2022-11-06T05:18:33;5.23;;;3.03;;
11709;SDS011;5911;51.036;6.972;2022-11-06T05:21:01;6.37;;;3.50;;
11709;SDS011;5911;51.036;6.972;2022-11-06T05:23:47;7.87;;;3.17;;
11709;SDS011;5911;51.036;6.972;2022-11-06T05:26:15;6.27;;;3.70;;
11709;SDS011;5911;51.036;6.972;2022-11-06T05:28:42;7.93;;;3.30;;
11709;SDS011;5911;51.036;6.972;2022-11-06T05:31:10;11.63;;;4.67;;
11709;SDS011;5911;51.036;6.972;2022-11-06T05:33:39;5.87;;;3.70;;
11709;SDS011;5911;51.036;6.972;2022-11-06T05:36:07;11.53;;;4.17;;
11709;SDS011;5911;51.036;6.972;2022-11-06T05:38:35;10.27;;;4.77;;
11709;SDS011;5911;51.036;6.972;2022-11-06T05:41:03;7.83;;;3.90;;
11709;SDS011;5911;51.036;6.972;2022-11-06T05:43:31;9.70;;;3.90;;
11709;SDS011;5911;51.036;6.972;2022-11-06T05:45:59;6.67;;;3.30;;
11709;SDS011;5911;51.036;6.972;2022-11-06T05:48:27;5.13;;;2.87;;
11709;SDS011;5911;51.036;6.972;2022-11-06T05:51:00;6.47;;;2.80;;
11709;SDS011;5911;51.036;6.972;2022-11-06T05:53:28;4.80;;;2.60;;
11709;SDS011;5911;51.036;6.972;2022-11-06T05:55:56;7.23;;;2.87;;
11709;SDS011;5911;51.036;6.972;2022-11-06T05:58:24;5.43;;;2.50;;
11709;SDS011;5911;51.036;6.972;2022-11-06T06:00:52;5.10;;;2.40;;
11709;SDS011;5911;51.036;6.972;2022-11-06T06:03:20;6.37;;;3.60;;
11709;SDS011;5911;51.036;6.972;2022-11-06T06:05:49;7.40;;;2.87;;
11709;SDS011;5911;51.036;6.972;2022-11-06T06:08:18;9.83;;;3.47;;
11709;SDS011;5911;51.036;6.972;2022-11-06T06:10:46;8.03;;;3.00;;
11709;SDS011;5911;51.036;6.972;2022-11-06T06:13:15;6.50;;;2.70;;
11709;SDS011;5911;51.036;6.972;2022-11-06T06:15:43;7.67;;;3.53;;
11709;SDS011;5911;51.036;6.972;2022-11-06T06:18:14;6.67;;;3.70;;
11709;SDS011;5911;51.036;6.972;2022-11-06T06:20:42;8.63;;;3.17;;
11709;SDS011;5911;51.036;6.972;2022-11-06T06:23:10;6.83;;;2.77;;
11709;SDS011;5911;51.036;6.972;2022-11-06T06:25:39;8.37;;;3.50;;
11709;SDS011;5911;51.036;6.972;2022-11-06T06:28:06;6.37;;;3.40;;
11709;SDS011;5911;51.036;6.972;2022-11-06T06:30:34;8.37;;;4.17;;
11709;SDS011;5911;51.036;6.972;2022-11-06T06:33:03;10.10;;;4.83;;
11709;SDS011;5911;51.036;6.972;2022-11-06T06:35:32;16.50;;;6.40;;
11709;SDS011;5911;51.036;6.972;2022-11-06T06:38:00;37.20;;;6.73;;
11709;SDS011;5911;51.036;6.972;2022-11-06T06:40:28;10.40;;;4.57;;
11709;SDS011;5911;51.036;6.972;2022-11-06T06:42:57;9.83;;;4.47;;
11709;SDS011;5911;51.036;6.972;2022-11-06T06:45:25;9.23;;;4.17;;
11709;SDS011;5911;51.036;6.972;2022-11-06T06:47:55;9.20;;;4.43;;
11709;SDS011;5911;51.036;6.972;2022-11-06T06:50:28;9.60;;;3.97;;
11709;SDS011;5911;51.036;6.972;2022-11-06T06:52:56;15.30;;;5.30;;
11709;SDS011;5911;51.036;6.972;2022-11-06T06:55:25;14.30;;;5.90;;
11709;SDS011;5911;51.036;6.972;2022-11-06T06:57:58;13.63;;;5.50;;
11709;SDS011;5911;51.036;6.972;2022-11-06T07:00:26;14.73;;;5.33;;
11709;SDS011;5911;51.036;6.972;2022-11-06T07:02:55;12.47;;;5.20;;
11709;SDS011;5911;51.036;6.972;2022-11-06T07:05:23;14.30;;;5.30;;
11709;SDS011;5911;51.036;6.972;2022-11-06T07:07:51;11.87;;;4.97;;
11709;SDS011;5911;51.036;6.972;2022-11-06T07:10:19;13.30;;;5.97;;
11709;SDS011;5911;51.036;6.972;2022-11-06T07:12:47;13.03;;;5.43;;
11709;SDS011;5911;51.036;6.972;2022-11-06T07:15:21;12.70;;;4.87;;
11709;SDS011;5911;51.036;6.972;2022-11-06T07:17:49;8.80;;;4.53;;
11709;SDS011;5911;51.036;6.972;2022-11-06T07:20:16;9.57;;;4.43;;
11709;SDS011;5911;51.036;6.972;2022-11-06T07:22:44;8.00;;;3.57;;
11709;SDS011;5911;51.036;6.972;2022-11-06T07:25:12;7.13;;;3.30;;
11709;SDS011;5911;51.036;6.972;2022-11-06T07:27:40;7.53;;;3.27;;
11709;SDS011;5911;51.036;6.972;2022-11-06T07:30:08;6.17;;;3.00;;
11709;SDS011;5911;51.036;6.972;2022-11-06T07:32:38;7.23;;;3.30;;
11709;SDS011;5911;51.036;6.972;2022-11-06T07:35:06;7.67;;;3.33;;
11709;SDS011;5911;51.036;6.972;2022-11-06T07:37:35;7.73;;;3.20;;
11709;SDS011;5911;51.036;6.972;2022-11-06T07:40:03;4.43;;;2.30;;
11709;SDS011;5911;51.036;6.972;2022-11-06T07:42:31;7.33;;;3.10;;
11709;SDS011;5911;51.036;6.972;2022-11-06T07:45:02;8.30;;;3.07;;
11709;SDS011;5911;51.036;6.972;2022-11-06T07:47:30;8.80;;;3.13;;
11709;SDS011;5911;51.036;6.972;2022-11-06T07:49:59;11.97;;;4.10;;
11709;SDS011;5911;51.036;6.972;2022-11-06T07:52:27;9.50;;;4.17;;
11709;SDS011;5911;51.036;6.972;2022-11-06T07:54:55;10.23;;;4.23;;
11709;SDS011;5911;51.036;6.972;2022-11-06T07:57:23;9.23;;;3.80;;
11709;SDS011;5911;51.036;6.972;2022-11-06T07:59:51;11.90;;;4.40;;
11709;SDS011;5911;51.036;6.972;2022-11-06T08:02:19;9.37;;;4.57;;
11709;SDS011;5911;51.036;6.972;2022-11-06T08:04:50;13.13;;;4.50;;
11709;SDS011;5911;51.036;6.972;2022-11-06T08:07:19;11.03;;;4.57;;
11709;SDS011;5911;51.036;6.972;2022-11-06T08:09:47;11.93;;;4.93;;
11709;SDS011;5911;51.036;6.972;2022-11-06T08:12:15;7.37;;;4.13;;
11709;SDS011;5911;51.036;6.972;2022-11-06T08:14:43;8.43;;;3.97;;
11709;SDS011;5911;51.036;6.972;2022-11-06T08:17:11;10.03;;;3.37;;
11709;SDS011;5911;51.036;6.972;2022-11-06T08:19:39;6.83;;;3.57;;
11709;SDS011;5911;51.036;6.972;2022-11-06T08:22:07;8.43;;;3.80;;
11709;SDS011;5911;51.036;6.972;2022-11-06T08:24:40;10.93;;;3.73;;
11709;SDS011;5911;51.036;6.972;2022-11-06T08:27:08;10.67;;;4.50;;
11709;SDS011;5911;51.036;6.972;2022-11-06T08:29:36;10.50;;;4.23;;
11709;SDS011;5911;51.036;6.972;2022-11-06T08:32:07;9.27;;;3.90;;
11709;SDS011;5911;51.036;6.972;2022-11-06T08:34:35;12.07;;;4.87;;
11709;SDS011;5911;51.036;6.972;2022-11-06T08:37:06;9.90;;;5.43;;
11709;SDS011;5911;51.036;6.972;2022-11-06T08:39:36;13.07;;;5.83;;
11709;SDS011;5911;51.036;6.972;2022-11-06T08:42:05;13.37;;;5.63;;
11709;SDS011;5911;51.036;6.972;2022-11-06T08:44:33;8.50;;;4.63;;
11709;SDS011;5911;51.036;6.972;2022-11-06T08:47:01;13.53;;;4.60;;
11709;SDS011;5911;51.036;6.972;2022-11-06T08:49:28;10.70;;;4.13;;
11709;SDS011;5911;51.036;6.972;2022-11-06T08:51:56;9.10;;;4.50;;
11709;SDS011;5911;51.036;6.972;2022-11-06T08:54:24;11.57;;;3.97;;
11709;SDS011;5911;51.036;6.972;2022-11-06T08:56:52;7.00;;;3.83;;
11709;SDS011;5911;51.036;6.972;2022-11-06T08:59:21;7.47;;;3.50;;
11709;SDS011;5911;51.036;6.972;2022-11-06T09:01:49;5.97;;;2.90;;
11709;SDS011;5911;51.036;6.972;2022-11-06T09:04:17;5.93;;;2.97;;
11709;SDS011;5911;51.036;6.972;2022-11-06T09:06:45;9.80;;;4.10;;
11709;SDS011;5911;51.036;6.972;2022-11-06T09:09:13;10.23;;;4.10;;
11709;SDS011;5911;51.036;6.972;2022-11-06T09:11:40;6.27;;;3.20;;
11709;SDS011;5911;51.036;6.972;2022-11-06T09:14:08;7.50;;;3.20;;
11709;SDS011;5911;51.036;6.972;2022-11-06T09:16:37;7.77;;;3.60;;
11709;SDS011;5911;51.036;6.972;2022-11-06T09:19:05;5.87;;;2.80;;
11709;SDS011;5911;51.036;6.972;2022-11-06T09:21:33;9.90;;;3.00;;
11709;SDS011;5911;51.036;6.972;2022-11-06T09:24:02;4.10;;;2.20;;
11709;SDS011;5911;51.036;6.972;2022-11-06T09:26:30;4.83;;;2.80;;
11709;SDS011;5911;51.036;6.972;2022-11-06T09:28:58;6.93;;;2.80;;
11709;SDS011;5911;51.036;6.972;2022-11-06T09:31:25;10.40;;;3.17;;
11709;SDS011;5911;51.036;6.972;2022-11-06T09:33:55;6.07;;;2.87;;
11709;SDS011;5911;51.036;6.972;2022-11-06T09:36:22;5.57;;;2.77;;
11709;SDS011;5911;51.036;6.972;2022-11-06T09:38:50;7.23;;;2.30;;
11709;SDS011;5911;51.036;6.972;2022-11-06T09:41:20;5.53;;;2.53;;
11709;SDS011;5911;51.036;6.972;2022-11-06T09:43:58;6.10;;;2.80;;
11709;SDS011;5911;51.036;6.972;2022-11-06T09:46:39;3.73;;;2.37;;
11709;SDS011;5911;51.036;6.972;2022-11-06T09:49:15;6.97;;;2.53;;
11709;SDS011;5911;51.036;6.972;2022-11-06T09:51:47;4.53;;;2.60;;
11709;SDS011;5911;51.036;6.972;2022-11-06T09:54:21;4.93;;;3.30;;
11709;SDS011;5911;51.036;6.972;2022-11-06T09:56:54;6.83;;;3.50;;
11709;SDS011;5911;51.036;6.972;2022-11-06T09:59:25;6.53;;;3.63;;
11709;SDS011;5911;51.036;6.972;2022-11-06T10:01:54;8.57;;;3.20;;
11709;SDS011;5911;51.036;6.972;2022-11-06T10:04:30;6.80;;;3.10;;
11709;SDS011;5911;51.036;6.972;2022-11-06T10:07:10;6.03;;;3.17;;
11709;SDS011;5911;51.036;6.972;2022-11-06T10:09:45;10.03;;;3.47;;
11709;SDS011;5911;51.036;6.972;2022-11-06T10:12:15;9.07;;;3.40;;
11709;SDS011;5911;51.036;6.972;2022-11-06T10:14:50;8.83;;;3.70;;
11709;SDS011;5911;51.036;6.972;2022-11-06T10:17:28;7.33;;;3.63;;
11709;SDS011;5911;51.036;6.972;2022-11-06T10:20:11;9.80;;;3.80;;
11709;SDS011;5911;51.036;6.972;2022-11-06T10:22:53;6.00;;;2.90;;
11709;SDS011;5911;51.036;6.972;2022-11-06T10:25:34;5.60;;;3.20;;
11709;SDS011;5911;51.036;6.972;2022-11-06T10:28:12;7.13;;;3.67;;
11709;SDS011;5911;51.036;6.972;2022-11-06T10:30:53;6.80;;;3.70;;
11709;SDS011;5911;51.036;6.972;2022-11-06T10:33:32;10.50;;;4.43;;
11709;SDS011;5911;51.036;6.972;2022-11-06T10:36:11;7.77;;;4.00;;
11709;SDS011;5911;51.036;6.972;2022-11-06T10:38:43;9.80;;;3.90;;
11709;SDS011;5911;51.036;6.972;2022-11-06T10:41:15;7.90;;;3.70;;
11709;SDS011;5911;51.036;6.972;2022-11-06T10:43:47;10.73;;;4.33;;
11709;SDS011;5911;51.036;6.972;2022-11-06T10:46:21;11.97;;;4.47;;
11709;SDS011;5911;51.036;6.972;2022-11-06T10:48:56;13.37;;;5.00;;
11709;SDS011;5911;51.036;6.972;2022-11-06T10:51:36;10.83;;;4.83;;
11709;SDS011;5911;51.036;6.972;2022-11-06T10:54:20;14.17;;;5.40;;
11709;SDS011;5911;51.036;6.972;2022-11-06T10:57:00;12.90;;;6.93;;
11709;SDS011;5911;51.036;6.972;2022-11-06T10:59:42;13.07;;;5.37;;
11709;SDS011;5911;51.036;6.972;2022-11-06T11:02:14;6.07;;;3.70;;
11709;SDS011;5911;51.036;6.972;2022-11-06T11:04:52;9.17;;;4.37;;
11709;SDS011;5911;51.036;6.972;2022-11-06T11:07:24;7.43;;;4.27;;
11709;SDS011;5911;51.036;6.972;2022-11-06T11:09:55;8.57;;;3.60;;
11709;SDS011;5911;51.036;6.972;2022-11-06T11:12:24;4.97;;;3.37;;
11709;SDS011;5911;51.036;6.972;2022-11-06T11:15:10;7.37;;;3.50;;
11709;SDS011;5911;51.036;6.972;2022-11-06T11:17:41;9.57;;;4.63;;
11709;SDS011;5911;51.036;6.972;2022-11-06T11:20:27;7.40;;;4.20;;
11709;SDS011;5911;51.036;6.972;2022-11-06T11:23:05;6.43;;;3.80;;
11709;SDS011;5911;51.036;6.972;2022-11-06T11:25:36;6.63;;;3.83;;
11709;SDS011;5911;51.036;6.972;2022-11-06T11:28:04;10.57;;;4.67;;
11709;SDS011;5911;51.036;6.972;2022-11-06T11:30:33;9.20;;;5.13;;
11709;SDS011;5911;51.036;6.972;2022-11-06T11:33:00;9.97;;;4.57;;
11709;SDS011;5911;51.036;6.972;2022-11-06T11:35:39;7.37;;;4.43;;
11709;SDS011;5911;51.036;6.972;2022-11-06T11:38:15;9.10;;;4.50;;
11709;SDS011;5911;51.036;6.972;2022-11-06T11:40:44;8.70;;;4.20;;
11709;SDS011;5911;51.036;6.972;2022-11-06T11:43:23;7.17;;;3.33;;
11709;SDS011;5911;51.036;6.972;2022-11-06T11:46:04;6.87;;;3.27;;
11709;SDS011;5911;51.036;6.972;2022-11-06T11:48:44;7.47;;;2.67;;
11709;SDS011;5911;51.036;6.972;2022-11-06T11:51:16;8.70;;;3.60;;
11709;SDS011;5911;51.036;6.972;2022-11-06T11:54:00;6.50;;;3.40;;
11709;SDS011;5911;51.036;6.972;2022-11-06T11:56:33;5.73;;;3.30;;
11709;SDS011;5911;51.036;6.972;2022-11-06T11:59:30;5.63;;;2.93;;
11709;SDS011;5911;51.036;6.972;2022-11-06T12:02:02;8.53;;;3.63;;
11709;SDS011;5911;51.036;6.972;2022-11-06T12:04:39;6.13;;;3.30;;
11709;SDS011;5911;51.036;6.972;2022-11-06T12:07:12;8.40;;;3.57;;
11709;SDS011;5911;51.036;6.972;2022-11-06T12:09:50;8.73;;;3.53;;
11709;SDS011;5911;51.036;6.972;2022-11-06T12:12:19;9.07;;;4.67;;
11709;SDS011;5911;51.036;6.972;2022-11-06T12:17:41;10.37;;;4.20;;
11709;SDS011;5911;51.036;6.972;2022-11-06T12:20:13;8.00;;;3.90;;
11709;SDS011;5911;51.036;6.972;2022-11-06T12:22:45;5.53;;;2.77;;
11709;SDS011;5911;51.036;6.972;2022-11-06T12:25:19;6.70;;;3.20;;
11709;SDS011;5911;51.036;6.972;2022-11-06T12:27:52;5.20;;;2.87;;
11709;SDS011;5911;51.036;6.972;2022-11-06T12:30:21;8.40;;;4.00;;
11709;SDS011;5911;51.036;6.972;2022-11-06T12:32:53;6.40;;;3.37;;
11709;SDS011;5911;51.036;6.972;2022-11-06T12:35:27;7.27;;;3.70;;
11709;SDS011;5911;51.036;6.972;2022-11-06T12:38:01;7.80;;;4.10;;
11709;SDS011;5911;51.036;6.972;2022-11-06T12:40:39;9.77;;;4.23;;
11709;SDS011;5911;51.036;6.972;2022-11-06T12:43:11;8.73;;;4.20;;
11709;SDS011;5911;51.036;6.972;2022-11-06T12:45:51;7.37;;;3.30;;
11709;SDS011;5911;51.036;6.972;2022-11-06T12:48:32;8.10;;;3.37;;
11709;SDS011;5911;51.036;6.972;2022-11-06T12:51:17;6.17;;;2.90;;
11709;SDS011;5911;51.036;6.972;2022-11-06T12:53:58;5.33;;;2.97;;
11709;SDS011;5911;51.036;6.972;2022-11-06T12:56:37;7.23;;;3.40;;
11709;SDS011;5911;51.036;6.972;2022-11-06T12:59:17;5.40;;;2.77;;
11709;SDS011;5911;51.036;6.972;2022-11-06T13:01:57;5.90;;;3.10;;
11709;SDS011;5911;51.036;6.972;2022-11-06T13:04:41;5.07;;;2.90;;
11709;SDS011;5911;51.036;6.972;2022-11-06T13:07:37;2.53;;;2.07;;
11709;SDS011;5911;51.036;6.972;2022-11-06T13:10:22;3.10;;;2.08;;
11709;SDS011;5911;51.036;6.972;2022-11-06T13:13:01;3.40;;;2.10;;
11709;SDS011;5911;51.036;6.972;2022-11-06T13:15:44;5.83;;;2.50;;
11709;SDS011;5911;51.036;6.972;2022-11-06T13:18:17;4.93;;;2.20;;
11709;SDS011;5911;51.036;6.972;2022-11-06T13:20:51;5.30;;;2.83;;
11709;SDS011;5911;51.036;6.972;2022-11-06T13:23:24;4.60;;;2.47;;
11709;SDS011;5911;51.036;6.972;2022-11-06T13:25:56;5.90;;;2.37;;
11709;SDS011;5911;51.036;6.972;2022-11-06T13:28:32;3.45;;;1.75;;
11709;SDS011;5911;51.036;6.972;2022-11-06T13:31:04;7.07;;;2.07;;
11709;SDS011;5911;51.036;6.972;2022-11-06T13:33:35;2.90;;;1.80;;
11709;SDS011;5911;51.036;6.972;2022-11-06T13:36:06;6.40;;;2.27;;
11709;SDS011;5911;51.036;6.972;2022-11-06T13:38:36;3.30;;;1.90;;
11709;SDS011;5911;51.036;6.972;2022-11-06T13:41:10;2.90;;;1.80;;
11709;SDS011;5911;51.036;6.972;2022-11-06T13:43:43;2.40;;;2.13;;
11709;SDS011;5911;51.036;6.972;2022-11-06T13:46:18;2.37;;;1.67;;
11709;SDS011;5911;51.036;6.972;2022-11-06T13:48:57;2.58;;;1.80;;
11709;SDS011;5911;51.036;6.972;2022-11-06T13:51:34;5.03;;;2.17;;
11709;SDS011;5911;51.036;6.972;2022-11-06T13:54:12;4.97;;;1.83;;
11709;SDS011;5911;51.036;6.972;2022-11-06T13:56:56;4.25;;;1.92;;
11709;SDS011;5911;51.036;6.972;2022-11-06T13:59:48;3.65;;;1.65;;
11709;SDS011;5911;51.036;6.972;2022-11-06T14:02:30;2.37;;;1.57;;
11709;SDS011;5911;51.036;6.972;2022-11-06T14:08:13;4.77;;;1.70;;
11709;SDS011;5911;51.036;6.972;2022-11-06T14:10:46;4.33;;;1.53;;
11709;SDS011;5911;51.036;6.972;2022-11-06T14:13:23;3.00;;;1.50;;
11709;SDS011;5911;51.036;6.972;2022-11-06T14:16:05;5.17;;;1.90;;
11709;SDS011;5911;51.036;6.972;2022-11-06T14:18:57;5.23;;;1.60;;
11709;SDS011;5911;51.036;6.972;2022-11-06T14:24:28;5.57;;;1.73;;
11709;SDS011;5911;51.036;6.972;2022-11-06T14:26:58;3.63;;;1.63;;
11709;SDS011;5911;51.036;6.972;2022-11-06T14:32:36;3.40;;;1.70;;
11709;SDS011;5911;51.036;6.972;2022-11-06T14:44:19;2.27;;;1.53;;
11709;SDS011;5911;51.036;6.972;2022-11-06T14:46:51;3.97;;;1.87;;
11709;SDS011;5911;51.036;6.972;2022-11-06T14:49:27;4.20;;;2.10;;
11709;SDS011;5911;51.036;6.972;2022-11-06T14:52:08;3.33;;;1.70;;
11709;SDS011;5911;51.036;6.972;2022-11-06T14:54:38;2.43;;;1.77;;
11709;SDS011;5911;51.036;6.972;2022-11-06T14:57:15;2.50;;;1.80;;
11709;SDS011;5911;51.036;6.972;2022-11-06T14:59:59;3.73;;;1.80;;
11709;SDS011;5911;51.036;6.972;2022-11-06T15:02:28;3.00;;;2.13;;
11709;SDS011;5911;51.036;6.972;2022-11-06T15:04:59;4.03;;;2.00;;
11709;SDS011;5911;51.036;6.972;2022-11-06T15:07:32;2.40;;;1.53;;
11709;SDS011;5911;51.036;6.972;2022-11-06T15:13:21;4.60;;;2.00;;
11709;SDS011;5911;51.036;6.972;2022-11-06T15:16:02;2.67;;;1.80;;
11709;SDS011;5911;51.036;6.972;2022-11-06T15:18:36;3.20;;;2.30;;
11709;SDS011;5911;51.036;6.972;2022-11-06T15:21:16;2.77;;;2.03;;
11709;SDS011;5911;51.036;6.972;2022-11-06T15:23:52;2.80;;;2.17;;
11709;SDS011;5911;51.036;6.972;2022-11-06T15:26:28;1.60;;;1.50;;
11709;SDS011;5911;51.036;6.972;2022-11-06T15:29:05;2.13;;;1.53;;
11709;SDS011;5911;51.036;6.972;2022-11-06T15:31:43;4.23;;;2.73;;
11709;SDS011;5911;51.036;6.972;2022-11-06T15:34:15;3.17;;;2.10;;
11709;SDS011;5911;51.036;6.972;2022-11-06T15:36:49;1.97;;;1.77;;
11709;SDS011;5911;51.036;6.972;2022-11-06T15:39:20;1.83;;;1.70;;
11709;SDS011;5911;51.036;6.972;2022-11-06T15:41:49;3.33;;;2.30;;
11709;SDS011;5911;51.036;6.972;2022-11-06T15:44:18;1.87;;;1.67;;
11709;SDS011;5911;51.036;6.972;2022-11-06T15:46:51;3.23;;;1.87;;
11709;SDS011;5911;51.036;6.972;2022-11-06T15:49:20;4.40;;;2.00;;
11709;SDS011;5911;51.036;6.972;2022-11-06T15:51:50;2.73;;;1.90;;
11709;SDS011;5911;51.036;6.972;2022-11-06T15:54:30;4.87;;;2.27;;
11709;SDS011;5911;51.036;6.972;2022-11-06T15:57:03;3.43;;;1.87;;
11709;SDS011;5911;51.036;6.972;2022-11-06T15:59:34;5.43;;;2.50;;
11709;SDS011;5911;51.036;6.972;2022-11-06T16:02:03;4.17;;;1.90;;
11709;SDS011;5911;51.036;6.972;2022-11-06T16:04:32;3.33;;;2.20;;
11709;SDS011;5911;51.036;6.972;2022-11-06T16:07:02;5.27;;;2.67;;